createdAt,value
2018-05-09T09:37:06.849Z,45.40
2018-05-09T09:39:34.967Z,41.70
2018-05-09T09:42:02.715Z,42.10
2018-05-09T09:44:30.629Z,40.50
2018-05-09T09:46:59.078Z,37.40
2018-05-09T09:49:26.576Z,34.20
2018-05-09T09:51:54.085Z,31.60
2018-05-09T09:54:21.700Z,33.00
2018-05-09T09:56:49.522Z,31.10
2018-05-09T09:59:17.497Z,30.77
2018-05-09T10:01:45.043Z,27.63
2018-05-09T10:04:13.078Z,27.50
2018-05-09T10:06:40.752Z,25.77
2018-05-09T10:09:08.301Z,26.67
2018-05-09T10:11:35.716Z,26.37
2018-05-09T10:14:03.931Z,24.77
2018-05-09T10:16:32.556Z,24.00
2018-05-09T10:19:00.073Z,22.37
2018-05-09T10:21:27.887Z,21.37
2018-05-09T10:23:56.388Z,20.20
2018-05-09T10:26:24.350Z,20.40
2018-05-09T10:28:52.097Z,18.37
2018-05-09T10:31:19.758Z,18.70
2018-05-09T10:33:47.426Z,18.90
2018-05-09T10:36:14.986Z,16.93
2018-05-09T10:38:42.991Z,16.12
2018-05-09T10:41:10.696Z,15.77
2018-05-09T10:43:39.600Z,16.10
2018-05-09T10:46:07.168Z,14.97
2018-05-09T10:48:34.607Z,15.17
2018-05-09T10:51:02.984Z,13.47
2018-05-09T10:53:30.639Z,13.43
2018-05-09T10:55:58.466Z,11.90
2018-05-09T10:58:26.261Z,13.70
2018-05-09T11:00:54.200Z,13.50
2018-05-09T11:03:22.992Z,12.50
2018-05-09T11:05:50.677Z,12.37
2018-05-09T11:08:18.360Z,11.63
2018-05-09T11:10:46.349Z,11.90
2018-05-09T11:13:15.339Z,12.65
2018-05-09T11:15:43.676Z,10.83
2018-05-09T11:40:57.863Z,12.47
2018-05-09T11:43:25.580Z,12.17
2018-05-09T11:45:53.362Z,10.83
2018-05-09T11:48:20.919Z,11.17
2018-05-09T11:50:49.428Z,11.77
2018-05-09T11:53:17.428Z,12.43
2018-05-09T11:55:45.972Z,11.10
2018-05-09T11:58:13.427Z,10.90
2018-05-09T12:00:41.043Z,10.73
2018-05-09T12:03:08.707Z,11.70
2018-05-09T12:05:36.339Z,11.13
2018-05-09T12:24:24.341Z,10.60
2018-05-09T12:26:52.123Z,12.20
2018-05-09T12:29:19.824Z,9.80
2018-05-09T12:31:47.505Z,9.80
2018-05-09T12:34:15.253Z,11.03
2018-05-09T12:36:43.488Z,10.80
2018-05-09T12:39:11.089Z,11.13
2018-05-09T12:41:39.559Z,10.53
2018-05-09T12:44:07.390Z,10.43
2018-05-09T12:46:36.201Z,10.70
2018-05-09T12:49:04.099Z,11.03
2018-05-09T13:14:16.812Z,11.47
2018-05-09T13:16:44.665Z,11.57
2018-05-09T13:19:12.213Z,10.73
2018-05-09T13:21:40.739Z,10.83
2018-05-09T13:24:08.681Z,10.93
2018-05-09T13:26:37.088Z,10.93
2018-05-09T13:29:05.582Z,10.87
2018-05-09T13:31:33.289Z,11.57
2018-05-09T13:34:00.949Z,12.37
2018-05-09T13:36:28.527Z,14.17
2018-05-09T13:38:57.004Z,14.83
2018-05-09T13:41:24.842Z,20.17
2018-05-09T13:43:52.573Z,23.67
2018-05-09T13:46:21.044Z,26.00
2018-05-09T13:48:48.645Z,25.77
2018-05-09T13:51:16.340Z,26.43
2018-05-09T13:53:44.208Z,32.53
2018-05-09T13:56:12.241Z,33.07
2018-05-09T13:58:40.989Z,34.37
2018-05-09T14:23:53.973Z,27.30
2018-05-09T14:26:21.841Z,26.40
2018-05-09T14:28:50.291Z,25.47
2018-05-09T14:37:11.506Z,26.00
2018-05-09T14:39:40.067Z,25.20
2018-05-09T14:42:07.765Z,25.03
2018-05-09T14:44:35.806Z,24.13
2018-05-09T14:47:03.912Z,24.03
2018-05-09T15:12:16.665Z,22.30
2018-05-09T15:14:45.044Z,21.60
2018-05-09T15:33:28.798Z,22.60
2018-05-09T15:35:56.544Z,23.83
2018-05-09T15:38:25.127Z,21.87
2018-05-09T15:40:52.891Z,22.23
2018-05-09T15:43:20.650Z,22.50
2018-05-09T15:45:48.483Z,23.17
2018-05-09T15:48:17.451Z,22.23
2018-05-09T15:50:47.187Z,21.63
2018-05-09T15:53:15.164Z,21.17
2018-05-09T15:55:43.048Z,20.58
2018-05-09T15:58:11.008Z,23.70
2018-05-09T16:00:39.315Z,21.58
2018-05-09T16:03:09.198Z,20.20
2018-05-09T16:08:42.481Z,21.63
2018-05-09T16:11:10.518Z,21.15
2018-05-09T16:13:38.348Z,22.93
2018-05-09T16:16:05.974Z,20.30
2018-05-09T16:18:33.532Z,22.00
2018-05-09T16:40:10.656Z,19.92
2018-05-09T16:42:38.993Z,19.50
2018-05-09T16:45:06.847Z,18.67
2018-05-09T16:47:34.704Z,20.30
2018-05-09T16:50:04.020Z,21.20
2018-05-09T17:15:16.884Z,17.70
2018-05-09T17:17:44.459Z,19.07
2018-05-09T17:20:12.477Z,19.30
2018-05-09T17:22:40.378Z,19.52
2018-05-09T17:25:08.194Z,16.80
2018-05-09T17:27:36.019Z,19.33
2018-05-09T17:30:04.023Z,18.63
2018-05-09T17:32:33.082Z,18.80
2018-05-09T17:35:00.933Z,17.53
2018-05-09T17:37:28.722Z,18.80
2018-05-09T17:39:56.545Z,17.90
2018-05-09T17:42:24.484Z,19.17
2018-05-09T17:44:52.701Z,19.17
2018-05-09T17:47:21.025Z,20.33
2018-05-09T17:52:25.372Z,18.13
2018-05-09T17:54:54.175Z,19.80
2018-05-09T17:57:22.342Z,19.47
2018-05-09T17:59:50.421Z,17.33
2018-05-09T18:02:18.859Z,19.20
2018-05-09T18:04:47.633Z,19.07
2018-05-09T18:07:16.060Z,18.47
2018-05-09T18:09:44.407Z,17.60
2018-05-09T18:12:12.319Z,18.97
2018-05-09T18:14:40.731Z,16.80
2018-05-09T18:17:10.104Z,20.70
2018-05-09T18:19:38.376Z,18.40
2018-05-09T18:22:07.360Z,17.80
2018-05-09T18:24:36.258Z,17.00
2018-05-09T18:27:04.448Z,17.20
2018-05-09T18:29:33.834Z,17.80
2018-05-09T18:32:02.007Z,16.63
2018-05-09T18:34:30.159Z,17.80
2018-05-09T18:36:58.788Z,16.33
2018-05-09T18:39:28.089Z,18.00
2018-05-09T18:41:56.849Z,17.50
2018-05-09T18:44:25.130Z,16.30
2018-05-09T18:46:53.197Z,16.43
2018-05-09T18:49:22.254Z,15.67
2018-05-09T18:51:50.586Z,15.67
2018-05-09T18:54:19.775Z,15.70
2018-05-09T18:56:48.243Z,16.83
2018-05-09T18:59:16.760Z,14.23
2018-05-09T19:01:44.907Z,15.93
2018-05-09T19:04:13.786Z,15.70
2018-05-09T19:06:42.077Z,16.37
2018-05-09T19:09:10.251Z,16.03
2018-05-09T19:11:38.116Z,14.80
2018-05-09T19:14:07.418Z,15.03
2018-05-09T19:16:36.742Z,14.90
2018-05-09T19:19:04.976Z,15.77
2018-05-09T19:21:33.098Z,15.33
2018-05-09T19:24:01.578Z,15.80
2018-05-09T19:26:31.029Z,15.13
2018-05-09T19:28:59.242Z,15.80
2018-05-09T19:31:27.312Z,14.17
2018-05-09T19:33:55.365Z,15.10
2018-05-09T19:36:23.551Z,15.30
2018-05-09T19:38:52.027Z,15.13
2018-05-09T19:41:20.289Z,16.27
2018-05-09T19:43:49.494Z,14.40
2018-05-09T19:46:17.679Z,14.03
2018-05-09T19:48:48.090Z,14.77
2018-05-09T19:51:16.175Z,13.87
2018-05-09T19:53:44.962Z,14.30
2018-05-09T19:56:13.512Z,15.10
2018-05-09T19:58:41.840Z,15.23
2018-05-09T20:01:12.160Z,14.10
2018-05-09T20:03:41.048Z,14.30
2018-05-09T20:06:10.293Z,12.73
2018-05-09T20:08:42.365Z,12.77
2018-05-09T20:11:23.092Z,13.20
2018-05-09T20:13:51.364Z,13.30
2018-05-09T20:16:19.736Z,14.00
2018-05-09T20:18:48.619Z,13.53
2018-05-09T20:21:17.062Z,12.70
2018-05-09T20:23:45.778Z,12.70
2018-05-09T20:26:13.970Z,14.57
2018-05-09T20:28:42.131Z,11.63
2018-05-09T20:31:11.044Z,12.10
2018-05-09T20:33:40.011Z,11.73
2018-05-09T20:36:08.203Z,11.50
2018-05-09T20:38:36.472Z,10.23
2018-05-09T20:41:04.737Z,10.37
2018-05-09T20:43:32.605Z,8.43
2018-05-09T20:46:01.787Z,9.07
2018-05-09T20:48:30.596Z,8.07
2018-05-09T20:50:59.009Z,8.63
2018-05-09T20:53:28.522Z,7.97
2018-05-09T20:55:57.190Z,7.23
2018-05-09T20:58:25.844Z,7.03
2018-05-09T21:00:54.118Z,7.80
2018-05-09T21:03:22.746Z,7.50
2018-05-09T21:05:51.084Z,6.30
2018-05-09T21:08:19.481Z,6.90
2018-05-09T21:10:48.159Z,5.93
2018-05-09T21:13:16.767Z,6.20
2018-05-09T21:15:45.955Z,5.97
2018-05-09T21:18:14.837Z,6.00
2018-05-09T21:20:43.335Z,6.67
2018-05-09T21:23:11.568Z,5.87
2018-05-09T21:25:39.680Z,6.30
2018-05-09T21:28:10.324Z,5.73
2018-05-09T21:30:39.190Z,6.03
2018-05-09T21:33:07.686Z,5.13
2018-05-09T21:35:35.990Z,5.67
2018-05-09T21:38:04.312Z,5.87
2018-05-09T21:40:32.631Z,5.70
2018-05-09T21:43:01.658Z,6.50
2018-05-09T21:45:30.721Z,6.10
2018-05-09T21:47:59.198Z,6.07
2018-05-09T21:50:27.401Z,5.70
2018-05-09T21:52:56.748Z,6.17
2018-05-09T21:55:26.359Z,7.20
2018-05-09T21:57:54.893Z,23.27
2018-05-09T22:00:24.274Z,7.60
2018-05-09T22:02:53.602Z,8.20
2018-05-09T22:05:26.076Z,9.03
2018-05-09T22:07:55.220Z,8.30
2018-05-09T22:10:24.425Z,8.50
2018-05-09T22:12:53.206Z,8.80
2018-05-09T22:15:22.317Z,7.90
2018-05-09T22:17:51.173Z,7.40
2018-05-09T22:20:19.995Z,7.10
2018-05-09T22:22:48.971Z,7.00
2018-05-09T22:25:16.915Z,7.00
2018-05-09T22:27:45.013Z,7.13
2018-05-09T22:30:14.323Z,7.50
2018-05-09T22:32:43.133Z,7.67
2018-05-09T22:35:12.299Z,7.43
2018-05-09T22:37:41.366Z,7.57
2018-05-09T22:40:09.568Z,8.57
2018-05-09T22:42:38.759Z,10.03
2018-05-09T22:45:07.244Z,9.83
2018-05-09T22:47:36.843Z,9.97
2018-05-09T22:50:05.018Z,9.43
2018-05-09T22:52:33.061Z,8.70
2018-05-09T22:55:01.751Z,8.93
2018-05-09T22:57:30.489Z,8.87
2018-05-09T22:59:59.140Z,8.93
2018-05-09T23:02:27.693Z,8.97
2018-05-09T23:04:56.547Z,9.00
2018-05-09T23:07:24.816Z,13.37
2018-05-09T23:09:53.451Z,35.37
2018-05-09T23:12:21.772Z,115.23
2018-05-09T23:14:50.045Z,309.50
2018-05-09T23:17:18.964Z,589.87
2018-05-09T23:19:47.092Z,255.07
2018-05-09T23:22:15.388Z,178.30
2018-05-09T23:24:43.613Z,170.70
2018-05-09T23:27:12.431Z,165.13
2018-05-09T23:29:40.932Z,140.67
2018-05-09T23:32:09.802Z,140.27
2018-05-09T23:34:37.772Z,138.40
2018-05-09T23:37:05.836Z,123.07
2018-05-09T23:39:33.722Z,117.20
2018-05-09T23:42:01.916Z,121.20
2018-05-09T23:44:30.170Z,118.70
2018-05-09T23:46:58.140Z,107.93
2018-05-09T23:49:26.441Z,107.80
2018-05-09T23:51:54.943Z,85.40
2018-05-09T23:54:23.198Z,94.40
2018-05-09T23:56:51.491Z,90.13
2018-05-09T23:59:20.396Z,82.03
